createdAt,value
2023-12-13T00:02:18.617Z,10.50
2023-12-13T00:05:21.161Z,10.43
2023-12-13T00:08:23.623Z,12.30
2023-12-13T00:11:28.127Z,12.00
2023-12-13T00:14:30.529Z,10.93
2023-12-13T00:17:35.394Z,11.82
2023-12-13T00:20:40.553Z,13.13
2023-12-13T00:23:43.979Z,12.65
2023-12-13T00:29:48.621Z,13.38
2023-12-13T00:32:53.424Z,13.20
2023-12-13T00:35:55.824Z,14.15
2023-12-13T00:38:58.551Z,14.13
2023-12-13T00:42:01.052Z,13.68
2023-12-13T00:45:06.155Z,12.65
2023-12-13T00:48:09.434Z,12.48
2023-12-13T00:51:22.277Z,11.93
2023-12-13T00:54:26.154Z,11.35
2023-12-13T00:57:28.930Z,12.20
2023-12-13T01:00:31.484Z,11.30
2023-12-13T01:03:36.943Z,11.63
2023-12-13T01:06:39.410Z,12.35
2023-12-13T01:09:44.318Z,11.40
2023-12-13T01:12:47.233Z,10.10
2023-12-13T01:15:52.249Z,10.07
2023-12-13T01:18:57.660Z,11.10
2023-12-13T01:22:00.076Z,10.48
2023-12-13T01:25:05.768Z,10.27
2023-12-13T01:28:08.945Z,8.73
2023-12-13T01:31:11.409Z,8.13
2023-12-13T01:34:13.991Z,8.52
2023-12-13T01:37:19.134Z,8.25
2023-12-13T01:40:22.013Z,8.10
2023-12-13T01:43:24.763Z,7.97
2023-12-13T01:46:31.789Z,7.88
2023-12-13T01:49:36.661Z,8.15
2023-12-13T01:52:39.113Z,6.35
2023-12-13T01:55:41.634Z,6.75
2023-12-13T01:58:46.323Z,7.40
2023-12-13T02:01:49.034Z,7.38
2023-12-13T02:04:51.529Z,7.75
2023-12-13T02:07:56.484Z,7.72
2023-12-13T02:10:59.971Z,6.78
2023-12-13T02:14:05.752Z,7.65
2023-12-13T02:20:12.962Z,8.48
2023-12-13T02:23:17.884Z,8.02
2023-12-13T02:26:23.795Z,8.13
2023-12-13T02:29:26.202Z,7.85
2023-12-13T02:32:28.687Z,8.05
2023-12-13T02:35:35.693Z,7.40
2023-12-13T02:38:42.118Z,7.70
2023-12-13T02:41:44.625Z,7.32
2023-12-13T02:44:47.075Z,8.07
2023-12-13T02:47:54.499Z,7.85
2023-12-13T02:50:57.212Z,8.52
2023-12-13T02:53:59.816Z,7.72
2023-12-13T02:57:04.965Z,7.82
2023-12-13T03:00:10.099Z,7.65
2023-12-13T03:03:15.117Z,7.55
2023-12-13T03:06:17.634Z,7.35
2023-12-13T03:09:20.554Z,7.78
2023-12-13T03:12:23.081Z,8.18
2023-12-13T03:15:28.292Z,6.65
2023-12-13T03:18:30.802Z,8.02
2023-12-13T03:21:35.738Z,6.90
2023-12-13T03:24:40.303Z,6.47
2023-12-13T03:27:44.294Z,7.30
2023-12-13T03:30:46.875Z,7.57
2023-12-13T03:33:50.027Z,7.18
2023-12-13T03:36:52.889Z,7.15
2023-12-13T03:39:57.571Z,7.55
2023-12-13T03:43:00.320Z,6.88
2023-12-13T03:46:02.837Z,7.80
2023-12-13T03:49:05.304Z,6.35
2023-12-13T03:52:12.503Z,7.13
2023-12-13T03:55:17.527Z,6.93
2023-12-13T03:58:23.127Z,7.22
2023-12-13T04:01:25.568Z,7.43
2023-12-13T04:04:28.151Z,6.75
2023-12-13T04:07:30.711Z,6.45
2023-12-13T04:10:35.966Z,6.72
2023-12-13T04:13:38.461Z,6.57
2023-12-13T04:16:44.024Z,6.40
2023-12-13T04:19:47.328Z,6.18
2023-12-13T04:22:50.499Z,8.13
2023-12-13T04:25:55.345Z,6.43
2023-12-13T04:29:00.116Z,6.47
2023-12-13T04:32:02.557Z,7.63
2023-12-13T04:35:07.025Z,6.70
2023-12-13T04:38:09.476Z,6.65
2023-12-13T04:41:11.933Z,7.28
2023-12-13T04:44:14.339Z,6.90
2023-12-13T04:47:17.225Z,7.70
2023-12-13T04:50:23.325Z,6.72
2023-12-13T04:53:25.945Z,7.07
2023-12-13T04:56:30.920Z,6.53
2023-12-13T04:59:35.673Z,7.65
2023-12-13T05:02:41.274Z,7.43
2023-12-13T05:05:43.768Z,8.20
2023-12-13T05:08:47.607Z,7.95
2023-12-13T05:11:50.278Z,7.60
2023-12-13T05:14:53.053Z,6.25
2023-12-13T05:17:57.722Z,7.30
2023-12-13T05:21:05.465Z,7.03
2023-12-13T05:24:08.702Z,6.65
2023-12-13T05:27:11.094Z,6.93
2023-12-13T05:30:13.838Z,6.40
2023-12-13T05:33:20.928Z,6.78
2023-12-13T05:36:41.214Z,6.25
2023-12-13T05:39:43.678Z,6.53
2023-12-13T05:42:46.073Z,7.72
2023-12-13T05:45:48.543Z,6.97
2023-12-13T05:48:51.226Z,6.68
2023-12-13T05:51:54.264Z,6.82
2023-12-13T05:55:02.491Z,7.50
2023-12-13T05:58:05.049Z,6.65
2023-12-13T06:01:08.230Z,7.20
2023-12-13T06:04:13.990Z,6.50
2023-12-13T06:07:16.540Z,6.90
2023-12-13T06:10:19.086Z,6.97
2023-12-13T06:13:21.654Z,6.07
2023-12-13T06:16:26.410Z,6.90
2023-12-13T06:19:31.091Z,6.03
2023-12-13T06:22:33.673Z,6.95
2023-12-13T06:25:36.229Z,6.40
2023-12-13T06:28:38.769Z,6.53
2023-12-13T06:31:44.345Z,6.55
2023-12-13T06:34:47.369Z,5.72
2023-12-13T06:37:52.317Z,6.25
2023-12-13T06:40:54.974Z,5.00
2023-12-13T06:43:58.083Z,6.50
2023-12-13T06:47:03.111Z,6.75
2023-12-13T06:50:06.452Z,7.15
2023-12-13T06:53:11.452Z,7.53
2023-12-13T06:56:16.159Z,7.88
2023-12-13T06:59:21.270Z,8.68
2023-12-13T07:02:23.644Z,7.03
2023-12-13T07:05:26.520Z,7.43
2023-12-13T07:08:29.086Z,6.93
2023-12-13T07:11:31.538Z,6.55
2023-12-13T07:14:36.332Z,7.15
2023-12-13T07:17:40.002Z,6.50
2023-12-13T07:20:45.042Z,6.78
2023-12-13T07:23:47.676Z,7.05
2023-12-13T07:26:52.539Z,7.65
2023-12-13T07:29:57.381Z,6.78
2023-12-13T07:33:05.068Z,6.57
2023-12-13T07:36:08.024Z,6.82
2023-12-13T07:39:12.752Z,6.80
2023-12-13T07:42:17.431Z,6.75
2023-12-13T07:45:22.053Z,7.18
2023-12-13T07:48:29.844Z,7.43
2023-12-13T07:51:35.995Z,6.22
2023-12-13T07:54:38.630Z,7.28
2023-12-13T07:57:43.223Z,6.47
2023-12-13T08:00:48.765Z,6.70
2023-12-13T08:03:51.205Z,7.18
2023-12-13T08:06:56.409Z,7.20
2023-12-13T08:10:00.562Z,5.55
2023-12-13T08:13:03.012Z,5.55
2023-12-13T08:16:06.505Z,5.32
2023-12-13T08:19:09.200Z,5.90
2023-12-13T08:22:11.822Z,5.40
2023-12-13T08:25:14.546Z,4.82
2023-12-13T08:28:17.301Z,5.93
2023-12-13T08:31:24.096Z,6.28
2023-12-13T08:34:32.139Z,6.05
2023-12-13T08:37:34.907Z,5.18
2023-12-13T08:40:37.647Z,4.72
2023-12-13T08:43:40.300Z,5.60
2023-12-13T08:46:43.036Z,5.88
2023-12-13T08:49:47.972Z,6.22
2023-12-13T08:52:52.852Z,5.63
2023-12-13T08:55:55.392Z,5.93
2023-12-13T08:58:58.165Z,6.35
2023-12-13T09:02:00.683Z,5.07
2023-12-13T09:05:03.151Z,4.47
2023-12-13T09:08:06.131Z,4.30
2023-12-13T09:11:11.540Z,5.93
2023-12-13T09:14:14.029Z,4.78
2023-12-13T09:17:19.547Z,5.40
2023-12-13T09:20:22.103Z,5.85
2023-12-13T09:23:25.309Z,5.78
2023-12-13T09:26:27.965Z,6.45
2023-12-13T09:29:30.337Z,5.95
2023-12-13T09:32:34.616Z,7.22
2023-12-13T09:35:37.206Z,6.47
2023-12-13T09:38:39.632Z,5.93
2023-12-13T09:41:54.607Z,6.50
2023-12-13T09:44:57.269Z,7.38
2023-12-13T09:48:03.594Z,6.20
2023-12-13T09:51:06.440Z,5.20
2023-12-13T09:54:08.955Z,4.95
2023-12-13T09:57:11.458Z,5.00
2023-12-13T10:00:14.377Z,5.07
2023-12-13T10:03:19.417Z,5.63
2023-12-13T10:06:22.066Z,6.15
2023-12-13T10:09:28.712Z,5.25
2023-12-13T10:12:35.283Z,5.63
2023-12-13T10:15:38.935Z,5.10
2023-12-13T10:18:42.486Z,4.85
2023-12-13T10:21:47.417Z,5.43
2023-12-13T10:24:49.855Z,5.57
2023-12-13T10:27:53.449Z,5.10
2023-12-13T10:30:58.178Z,5.32
2023-12-13T10:34:01.095Z,5.80
2023-12-13T10:37:03.533Z,5.65
2023-12-13T10:40:08.678Z,5.07
2023-12-13T10:43:13.872Z,4.05
2023-12-13T10:46:17.456Z,4.28
2023-12-13T10:49:22.166Z,5.13
2023-12-13T10:52:27.763Z,4.68
2023-12-13T10:55:30.408Z,5.63
2023-12-13T10:58:32.983Z,5.90
2023-12-13T11:01:35.534Z,4.88
2023-12-13T11:04:37.977Z,5.13
2023-12-13T11:07:45.487Z,4.97
2023-12-13T11:11:12.094Z,5.50
2023-12-13T11:14:16.910Z,5.60
2023-12-13T11:17:21.081Z,6.00
2023-12-13T11:20:24.337Z,4.78
2023-12-13T11:23:29.851Z,4.78
2023-12-13T11:26:35.064Z,4.65
2023-12-13T11:29:37.503Z,5.03
2023-12-13T11:32:44.630Z,5.00
2023-12-13T11:35:47.724Z,4.70
2023-12-13T11:38:55.509Z,5.22
2023-12-13T11:42:03.335Z,5.85
2023-12-13T11:45:06.676Z,5.22
2023-12-13T11:48:11.622Z,5.70
2023-12-13T11:51:14.071Z,7.07
2023-12-13T11:54:17.077Z,8.10
2023-12-13T11:57:20.175Z,20.80
2023-12-13T12:00:22.908Z,12.82
2023-12-13T12:03:28.175Z,9.38
2023-12-13T12:06:30.711Z,7.82
2023-12-13T12:09:33.535Z,6.40
2023-12-13T12:12:38.520Z,5.63
2023-12-13T12:15:45.448Z,6.80
2023-12-13T12:18:48.414Z,6.15
2023-12-13T12:21:51.331Z,5.70
2023-12-13T12:24:57.171Z,6.45
2023-12-13T12:28:02.600Z,6.95
2023-12-13T12:31:05.130Z,6.60
2023-12-13T12:34:07.666Z,5.90
2023-12-13T12:37:13.127Z,7.03
2023-12-13T12:43:24.827Z,6.65
2023-12-13T12:46:27.806Z,5.93
2023-12-13T12:49:30.366Z,7.57
2023-12-13T12:52:38.266Z,7.40
2023-12-13T12:55:41.755Z,7.50
2023-12-13T12:58:47.061Z,7.72
2023-12-13T13:01:52.015Z,7.80
2023-12-13T13:04:54.600Z,8.18
2023-12-13T13:07:59.985Z,8.82
2023-12-13T13:11:04.877Z,8.38
2023-12-13T13:14:08.198Z,7.90
2023-12-13T13:17:10.963Z,7.90
2023-12-13T13:20:18.940Z,7.93
2023-12-13T13:23:21.414Z,8.07
2023-12-13T13:26:23.932Z,7.90
2023-12-13T13:29:26.459Z,7.25
2023-12-13T13:32:29.411Z,6.97
2023-12-13T13:35:34.879Z,7.35
2023-12-13T13:38:37.323Z,6.30
2023-12-13T13:41:40.398Z,6.22
2023-12-13T13:44:42.859Z,7.25
2023-12-13T13:47:45.413Z,6.60
2023-12-13T13:50:51.696Z,6.63
2023-12-13T13:53:54.143Z,6.90
2023-12-13T13:56:56.639Z,6.63
2023-12-13T14:00:03.828Z,6.72
2023-12-13T14:03:15.565Z,6.63
2023-12-13T14:06:20.267Z,5.90
2023-12-13T14:09:27.718Z,6.03
2023-12-13T14:12:33.380Z,5.90
2023-12-13T14:15:38.057Z,6.60
2023-12-13T14:18:43.882Z,6.53
2023-12-13T14:21:46.450Z,6.80
2023-12-13T14:24:51.373Z,6.75
2023-12-13T14:27:57.812Z,7.45
2023-12-13T14:31:00.425Z,7.57
2023-12-13T14:34:08.681Z,8.52
2023-12-13T14:37:12.042Z,9.07
2023-12-13T14:40:16.383Z,8.80
2023-12-13T14:43:19.790Z,9.85
2023-12-13T14:46:22.574Z,10.00
2023-12-13T14:49:27.404Z,9.93
2023-12-13T14:52:31.656Z,9.57
2023-12-13T14:55:37.566Z,9.68
2023-12-13T14:58:42.402Z,9.77
2023-12-13T15:01:47.340Z,10.25
2023-12-13T15:04:49.997Z,10.35
2023-12-13T15:07:57.444Z,9.32
2023-12-13T15:11:00.147Z,10.57
2023-12-13T15:14:02.754Z,10.88
2023-12-13T15:17:05.855Z,11.00
2023-12-13T15:20:09.643Z,11.73
2023-12-13T15:23:12.430Z,11.88
2023-12-13T15:26:17.036Z,11.70
2023-12-13T15:29:22.247Z,11.25
2023-12-13T15:32:24.737Z,10.80
2023-12-13T15:35:27.264Z,10.80
2023-12-13T15:38:29.870Z,11.32
2023-12-13T15:41:34.883Z,9.77
2023-12-13T15:44:37.766Z,10.30
2023-12-13T15:47:40.468Z,9.98
2023-12-13T15:50:45.084Z,10.32
2023-12-13T15:53:47.544Z,10.40
2023-12-13T15:56:50.059Z,9.80
2023-12-13T15:59:52.518Z,11.18
2023-12-13T16:02:55.217Z,10.07
2023-12-13T16:05:57.851Z,10.50
2023-12-13T16:09:00.405Z,10.82
2023-12-13T16:12:03.063Z,9.95
2023-12-13T16:15:05.926Z,9.18
2023-12-13T16:18:14.251Z,8.60
2023-12-13T16:21:17.437Z,9.48
2023-12-13T16:24:19.853Z,9.45
2023-12-13T16:27:22.284Z,12.43
2023-12-13T16:30:26.988Z,11.48
2023-12-13T16:33:34.244Z,9.23
2023-12-13T16:36:37.629Z,10.38
2023-12-13T16:39:42.525Z,9.55
2023-12-13T16:42:47.264Z,9.20
2023-12-13T16:45:52.030Z,9.70
2023-12-13T16:48:58.014Z,8.93
2023-12-13T16:52:05.720Z,8.90
2023-12-13T16:55:10.337Z,8.38
2023-12-13T16:58:46.597Z,9.82
2023-12-13T17:05:45.738Z,9.40
2023-12-13T17:09:07.558Z,9.20
2023-12-13T17:12:37.500Z,9.85
2023-12-13T17:19:43.396Z,10.18
2023-12-13T17:35:09.571Z,10.23
2023-12-13T17:38:20.892Z,10.43
2023-12-13T17:41:51.406Z,9.73
2023-12-13T17:45:12.381Z,8.23
2023-12-13T17:48:15.411Z,9.00
2023-12-13T17:59:58.252Z,10.10
2023-12-13T18:07:52.602Z,10.77
2023-12-13T18:15:19.294Z,10.35
2023-12-13T18:18:24.363Z,9.95
2023-12-13T18:22:26.115Z,9.43
2023-12-13T18:25:48.489Z,9.48
2023-12-13T18:29:11.936Z,9.02
2023-12-13T18:32:29.433Z,9.18
2023-12-13T18:35:47.241Z,9.18
2023-12-13T18:38:51.909Z,9.38
2023-12-13T18:41:56.660Z,8.75
2023-12-13T18:45:04.252Z,9.68
2023-12-13T18:48:07.368Z,9.57
2023-12-13T18:51:12.081Z,9.35
2023-12-13T18:54:14.442Z,9.65
2023-12-13T18:57:21.126Z,9.35
2023-12-13T19:00:25.733Z,10.13
2023-12-13T19:03:34.005Z,13.23
2023-12-13T19:06:36.740Z,10.80
2023-12-13T19:09:39.504Z,11.65
2023-12-13T19:12:41.961Z,11.50
2023-12-13T19:15:44.981Z,10.57
2023-12-13T19:18:49.831Z,9.23
2023-12-13T19:21:52.362Z,11.18
2023-12-13T19:24:55.124Z,12.23
2023-12-13T19:27:57.646Z,12.30
2023-12-13T19:31:00.117Z,13.38
2023-12-13T19:34:02.788Z,12.68
2023-12-13T19:37:10.056Z,12.20
2023-12-13T19:40:13.090Z,12.63
2023-12-13T19:43:15.649Z,12.77
2023-12-13T19:46:18.349Z,13.10
2023-12-13T19:49:26.941Z,12.48
2023-12-13T19:52:29.764Z,11.98
2023-12-13T19:55:32.389Z,14.80
2023-12-13T19:58:35.161Z,16.05
2023-12-13T20:01:37.661Z,17.02
2023-12-13T20:04:40.145Z,15.50
2023-12-13T20:07:49.752Z,14.68
2023-12-13T20:10:52.295Z,12.60
2023-12-13T20:13:57.250Z,14.18
2023-12-13T20:17:01.246Z,14.18
2023-12-13T20:20:07.917Z,15.68
2023-12-13T20:23:10.498Z,16.13
2023-12-13T20:26:17.603Z,16.35
2023-12-13T20:29:22.330Z,15.57
2023-12-13T20:32:24.776Z,16.67
2023-12-13T20:35:32.429Z,14.63
2023-12-13T20:38:35.038Z,14.88
2023-12-13T20:41:37.481Z,14.32
2023-12-13T20:44:42.286Z,16.05
2023-12-13T20:47:45.354Z,14.98
2023-12-13T20:50:50.037Z,13.18
2023-12-13T20:53:54.868Z,13.90
2023-12-13T20:56:57.211Z,14.02
2023-12-13T21:00:01.993Z,12.73
2023-12-13T21:03:04.825Z,12.00
2023-12-13T21:06:09.832Z,11.80
2023-12-13T21:09:12.385Z,12.77
2023-12-13T21:12:19.464Z,11.85
2023-12-13T21:15:21.888Z,12.80
2023-12-13T21:18:26.544Z,13.13
2023-12-13T21:21:29.156Z,13.02
2023-12-13T21:24:31.545Z,12.88
2023-12-13T21:27:36.701Z,13.23
2023-12-13T21:30:39.266Z,12.68
2023-12-13T21:33:41.828Z,14.25
2023-12-13T21:36:50.222Z,12.55
2023-12-13T21:39:55.217Z,14.02
2023-12-13T21:43:00.267Z,13.25
2023-12-13T21:46:03.251Z,12.60
2023-12-13T21:49:05.700Z,12.57
2023-12-13T21:52:08.144Z,12.30
2023-12-13T21:55:10.611Z,11.40
2023-12-13T21:58:12.992Z,11.90
2023-12-13T22:01:20.281Z,11.02
2023-12-13T22:04:22.798Z,11.30
2023-12-13T22:07:25.179Z,10.27
2023-12-13T22:10:30.724Z,11.27
2023-12-13T22:13:37.838Z,10.25
2023-12-13T22:16:44.546Z,11.57
2023-12-13T22:19:52.631Z,12.85
2023-12-13T22:22:56.287Z,10.40
2023-12-13T22:25:58.770Z,12.50
2023-12-13T22:29:01.534Z,12.93
2023-12-13T22:32:04.555Z,12.73
2023-12-13T22:35:12.071Z,10.52
2023-12-13T22:38:19.831Z,9.23
2023-12-13T22:41:24.006Z,9.98
2023-12-13T22:44:26.398Z,10.82
2023-12-13T22:47:31.238Z,9.77
2023-12-13T22:50:36.574Z,10.60
2023-12-13T22:53:44.710Z,11.05
2023-12-13T22:56:47.126Z,10.90
2023-12-13T22:59:52.256Z,10.57
2023-12-13T23:02:57.562Z,11.15
2023-12-13T23:06:00.771Z,10.38
2023-12-13T23:09:09.090Z,9.05
2023-12-13T23:12:11.605Z,11.50
2023-12-13T23:15:14.166Z,12.55
2023-12-13T23:18:19.222Z,11.50
2023-12-13T23:21:21.757Z,11.90
2023-12-13T23:24:27.179Z,10.77
2023-12-13T23:27:31.136Z,9.55
2023-12-13T23:30:33.727Z,10.88
2023-12-13T23:33:36.191Z,9.73
2023-12-13T23:36:38.821Z,10.63
2023-12-13T23:39:41.766Z,11.00
2023-12-13T23:42:48.872Z,10.05
2023-12-13T23:45:51.314Z,10.60
2023-12-13T23:48:54.171Z,9.45
2023-12-13T23:51:59.494Z,9.43
2023-12-13T23:55:01.928Z,9.82
2023-12-13T23:58:06.886Z,8.40
